createdAt,value
2023-02-25T00:00:33.608Z,5.85
2023-02-25T00:01:33.580Z,5.82
2023-02-25T00:02:33.562Z,5.82
2023-02-25T00:03:33.617Z,5.83
2023-02-25T00:04:33.464Z,5.81
2023-02-25T00:05:33.454Z,5.83
2023-02-25T00:06:33.418Z,5.83
2023-02-25T00:07:33.439Z,5.83
2023-02-25T00:08:33.358Z,5.81
2023-02-25T00:09:33.334Z,5.81
2023-02-25T00:10:33.309Z,5.85
2023-02-25T00:11:33.282Z,5.83
2023-02-25T00:12:33.278Z,5.78
2023-02-25T00:13:33.234Z,5.82
2023-02-25T00:14:33.271Z,5.85
2023-02-25T00:15:33.190Z,5.89
2023-02-25T00:16:33.192Z,5.82
2023-02-25T00:17:33.133Z,5.86
2023-02-25T00:18:33.114Z,5.86
2023-02-25T00:19:33.074Z,5.82
2023-02-25T00:20:33.061Z,5.78
2023-02-25T00:21:33.021Z,5.85
2023-02-25T00:22:33.021Z,5.86
2023-02-25T00:23:32.974Z,5.98
2023-02-25T00:24:32.953Z,5.98
2023-02-25T00:25:33.009Z,5.89
2023-02-25T00:26:33.011Z,5.86
2023-02-25T00:27:32.942Z,5.91
2023-02-25T00:28:32.863Z,5.88
2023-02-25T00:29:32.816Z,5.86
2023-02-25T00:30:32.807Z,5.88
2023-02-25T00:31:32.965Z,5.89
2023-02-25T00:32:32.835Z,5.85
2023-02-25T00:33:32.721Z,5.81
2023-02-25T00:34:32.702Z,5.81
2023-02-25T00:35:32.669Z,5.73
2023-02-25T00:36:32.642Z,5.74
2023-02-25T00:37:32.610Z,5.77
2023-02-25T00:38:32.609Z,5.71
2023-02-25T00:39:32.620Z,5.77
2023-02-25T00:40:32.561Z,5.66
2023-02-25T00:41:32.524Z,5.63
2023-02-25T00:42:32.490Z,5.71
2023-02-25T00:43:32.457Z,5.67
2023-02-25T00:44:32.445Z,5.67
2023-02-25T00:45:32.409Z,5.64
2023-02-25T00:46:32.456Z,5.64
2023-02-25T00:47:32.370Z,5.57
2023-02-25T00:48:32.345Z,5.60
2023-02-25T00:49:32.876Z,5.57
2023-02-25T00:50:32.303Z,5.68
2023-02-25T00:51:32.257Z,5.60
2023-02-25T00:52:32.229Z,5.63
2023-02-25T00:53:32.204Z,5.49
2023-02-25T00:54:32.178Z,5.53
2023-02-25T00:55:32.160Z,5.53
2023-02-25T00:56:32.143Z,5.70
2023-02-25T00:57:32.141Z,5.57
2023-02-25T00:58:32.079Z,5.52
2023-02-25T00:59:32.052Z,5.56
2023-02-25T01:00:40.483Z,5.50
2023-02-25T01:01:32.108Z,5.57
2023-02-25T01:02:31.986Z,5.60
2023-02-25T01:03:31.947Z,5.50
2023-02-25T01:04:31.928Z,5.50
2023-02-25T01:05:31.890Z,5.48
2023-02-25T01:06:31.878Z,5.53
2023-02-25T01:07:31.848Z,5.53
2023-02-25T01:08:31.821Z,5.52
2023-02-25T01:09:31.799Z,5.53
2023-02-25T01:10:31.771Z,5.48
2023-02-25T01:11:31.760Z,5.43
2023-02-25T01:12:31.737Z,5.45
2023-02-25T01:13:31.792Z,5.45
2023-02-25T01:14:31.663Z,5.45
2023-02-25T01:15:31.641Z,5.38
2023-02-25T01:16:31.763Z,5.41
2023-02-25T01:17:31.591Z,5.37
2023-02-25T01:18:31.556Z,5.46
2023-02-25T01:19:31.567Z,5.45
2023-02-25T01:20:31.508Z,5.49
2023-02-25T01:21:31.558Z,5.48
2023-02-25T01:22:31.478Z,5.52
2023-02-25T01:23:31.430Z,5.49
2023-02-25T01:24:31.436Z,5.53
2023-02-25T01:25:31.395Z,5.41
2023-02-25T01:26:31.384Z,5.49
2023-02-25T01:27:31.336Z,5.52
2023-02-25T01:28:31.307Z,5.48
2023-02-25T01:29:31.272Z,5.46
2023-02-25T01:30:31.249Z,5.46
2023-02-25T01:31:31.485Z,5.60
2023-02-25T01:32:31.385Z,5.57
2023-02-25T01:33:31.171Z,5.59
2023-02-25T01:34:31.148Z,5.46
2023-02-25T01:35:31.140Z,5.55
2023-02-25T01:36:31.100Z,5.50
2023-02-25T01:37:31.082Z,5.56
2023-02-25T01:38:31.095Z,5.53
2023-02-25T01:39:31.018Z,5.56
2023-02-25T01:40:31.055Z,5.60
2023-02-25T01:41:30.986Z,5.52
2023-02-25T01:42:31.110Z,5.60
2023-02-25T01:43:30.921Z,5.56
2023-02-25T01:44:30.885Z,5.71
2023-02-25T01:45:30.874Z,5.56
2023-02-25T01:46:30.877Z,5.56
2023-02-25T01:47:30.813Z,5.50
2023-02-25T01:48:30.856Z,5.56
2023-02-25T01:49:30.868Z,5.59
2023-02-25T01:50:30.802Z,5.52
2023-02-25T01:51:30.832Z,5.56
2023-02-25T01:52:30.690Z,5.60
2023-02-25T01:53:30.669Z,5.59
2023-02-25T01:54:30.684Z,5.56
2023-02-25T01:55:30.610Z,5.56
2023-02-25T01:56:30.583Z,5.60
2023-02-25T01:57:30.565Z,5.57
2023-02-25T01:58:30.525Z,5.59
2023-02-25T01:59:30.516Z,5.56
2023-02-25T02:00:30.538Z,5.53
2023-02-25T02:01:30.500Z,5.56
2023-02-25T02:02:30.571Z,5.55
2023-02-25T02:03:30.484Z,5.53
2023-02-25T02:04:30.412Z,5.52
2023-02-25T02:05:30.360Z,5.50
2023-02-25T02:06:30.414Z,5.56
2023-02-25T02:07:30.354Z,5.57
2023-02-25T02:08:30.483Z,5.63
2023-02-25T02:09:30.289Z,5.57
2023-02-25T02:10:30.257Z,5.63
2023-02-25T02:11:30.236Z,5.59
2023-02-25T02:12:30.171Z,5.53
2023-02-25T02:13:30.164Z,5.55
2023-02-25T02:14:30.160Z,5.57
2023-02-25T02:15:30.112Z,5.55
2023-02-25T02:16:30.130Z,5.60
2023-02-25T02:17:30.545Z,5.55
2023-02-25T02:18:30.197Z,5.56
2023-02-25T02:19:30.066Z,5.63
2023-02-25T02:20:29.981Z,5.56
2023-02-25T02:21:29.940Z,5.57
2023-02-25T02:22:29.908Z,5.63
2023-02-25T02:23:29.903Z,5.52
2023-02-25T02:24:29.860Z,5.53
2023-02-25T02:25:29.836Z,5.56
2023-02-25T02:26:29.816Z,5.53
2023-02-25T02:27:30.039Z,5.59
2023-02-25T02:28:30.054Z,5.55
2023-02-25T02:29:29.873Z,5.45
2023-02-25T02:30:29.833Z,5.56
2023-02-25T02:31:30.026Z,5.60
2023-02-25T02:32:29.821Z,5.56
2023-02-25T02:33:29.790Z,5.53
2023-02-25T02:34:29.767Z,5.55
2023-02-25T02:35:29.758Z,5.50
2023-02-25T02:37:29.650Z,5.63
2023-02-25T02:38:29.587Z,5.46
2023-02-25T02:39:29.591Z,5.55
2023-02-25T02:40:29.511Z,5.52
2023-02-25T02:41:29.422Z,5.59
2023-02-25T02:42:29.418Z,5.56
2023-02-25T02:43:29.544Z,5.56
2023-02-25T02:44:29.422Z,5.55
2023-02-25T02:45:29.519Z,5.56
2023-02-25T02:46:29.288Z,5.49
2023-02-25T02:47:29.273Z,5.55
2023-02-25T02:49:29.282Z,5.49
2023-02-25T02:50:29.441Z,5.46
2023-02-25T02:51:29.167Z,5.43
2023-02-25T02:52:29.149Z,5.45
2023-02-25T02:53:29.121Z,5.45
2023-02-25T02:54:29.078Z,5.32
2023-02-25T02:55:29.076Z,5.34
2023-02-25T02:56:29.025Z,5.41
2023-02-25T02:57:29.032Z,5.34
2023-02-25T02:58:28.983Z,5.40
2023-02-25T02:59:29.035Z,5.32
2023-02-25T03:00:29.028Z,5.37
2023-02-25T03:01:28.941Z,5.30
2023-02-25T03:02:28.867Z,5.37
2023-02-25T03:03:28.846Z,5.38
2023-02-25T03:04:28.864Z,5.30
2023-02-25T03:05:28.813Z,5.41
2023-02-25T03:06:28.783Z,5.34
2023-02-25T03:07:28.769Z,5.40
2023-02-25T03:08:28.795Z,5.40
2023-02-25T03:09:28.699Z,5.38
2023-02-25T03:10:28.680Z,5.31
2023-02-25T03:11:28.651Z,5.31
2023-02-25T03:12:28.616Z,5.28
2023-02-25T03:13:28.590Z,5.30
2023-02-25T03:14:28.617Z,5.37
2023-02-25T03:15:28.534Z,5.28
2023-02-25T03:16:28.583Z,5.30
2023-02-25T03:17:28.495Z,5.25
2023-02-25T03:18:28.459Z,5.28
2023-02-25T03:19:28.588Z,5.37
2023-02-25T03:21:28.509Z,5.25
2023-02-25T03:22:28.733Z,5.31
2023-02-25T03:23:28.567Z,5.34
2023-02-25T03:24:28.506Z,5.46
2023-02-25T03:25:28.364Z,5.35
2023-02-25T03:27:28.242Z,5.30
2023-02-25T03:28:28.206Z,5.28
2023-02-25T03:29:28.185Z,5.38
2023-02-25T03:30:28.202Z,5.38
2023-02-25T03:31:28.146Z,5.35
2023-02-25T03:32:28.190Z,5.41
2023-02-25T03:33:28.094Z,5.35
2023-02-25T03:34:28.055Z,5.31
2023-02-25T03:35:28.094Z,5.38
2023-02-25T03:37:28.102Z,5.40
2023-02-25T03:38:27.954Z,5.35
2023-02-25T03:39:27.940Z,5.35
2023-02-25T03:40:27.933Z,5.30
2023-02-25T03:41:27.884Z,5.25
2023-02-25T03:42:27.856Z,5.35
2023-02-25T03:43:27.859Z,5.34
2023-02-25T03:44:27.803Z,5.34
2023-02-25T03:45:27.782Z,5.34
2023-02-25T03:46:28.069Z,5.30
2023-02-25T03:47:27.768Z,5.31
2023-02-25T03:48:27.709Z,5.30
2023-02-25T03:49:27.681Z,5.45
2023-02-25T03:50:27.660Z,5.38
2023-02-25T03:51:27.655Z,5.31
2023-02-25T03:52:27.595Z,5.38
2023-02-25T03:53:27.572Z,5.32
2023-02-25T03:54:27.630Z,5.31
2023-02-25T03:55:27.553Z,5.28
2023-02-25T03:56:27.678Z,5.32
2023-02-25T03:57:27.584Z,5.23
2023-02-25T03:58:27.562Z,5.28
2023-02-25T04:00:27.486Z,5.28
2023-02-25T04:01:27.371Z,5.40
2023-02-25T04:02:27.380Z,5.25
2023-02-25T04:03:27.323Z,5.43
2023-02-25T04:04:27.318Z,5.31
2023-02-25T04:05:27.273Z,5.31
2023-02-25T04:06:27.226Z,5.28
2023-02-25T04:07:27.209Z,5.37
2023-02-25T04:08:27.178Z,5.37
2023-02-25T04:09:27.149Z,5.32
2023-02-25T04:10:27.128Z,5.31
2023-02-25T04:11:27.115Z,5.32
2023-02-25T04:12:27.068Z,5.37
2023-02-25T04:13:27.048Z,5.28
2023-02-25T04:14:27.024Z,5.16
2023-02-25T04:15:27.033Z,5.31
2023-02-25T04:16:26.970Z,5.28
2023-02-25T04:17:26.958Z,5.20
2023-02-25T04:18:26.921Z,5.28
2023-02-25T04:19:26.895Z,5.17
2023-02-25T04:20:27.013Z,5.23
2023-02-25T04:22:26.956Z,5.27
2023-02-25T04:23:26.905Z,5.32
2023-02-25T04:24:26.909Z,5.19
2023-02-25T04:25:26.737Z,5.20
2023-02-25T04:26:26.711Z,5.31
2023-02-25T04:27:26.785Z,5.25
2023-02-25T04:28:26.825Z,5.30
2023-02-25T04:29:26.704Z,5.25
2023-02-25T04:30:26.759Z,5.13
2023-02-25T04:31:26.810Z,5.25
2023-02-25T04:32:26.901Z,5.27
2023-02-25T04:33:26.548Z,5.34
2023-02-25T04:34:26.554Z,5.25
2023-02-25T04:35:26.498Z,5.35
2023-02-25T04:36:26.495Z,5.16
2023-02-25T04:37:26.451Z,5.12
2023-02-25T04:38:26.399Z,5.20
2023-02-25T04:39:26.378Z,5.16
2023-02-25T04:40:26.519Z,5.20
2023-02-25T04:41:26.573Z,5.20
2023-02-25T04:42:26.423Z,5.23
2023-02-25T04:43:26.477Z,5.22
2023-02-25T04:44:26.531Z,5.16
2023-02-25T04:45:27.116Z,5.14
2023-02-25T04:46:26.648Z,5.22
2023-02-25T04:47:26.167Z,5.20
2023-02-25T04:48:26.138Z,5.25
2023-02-25T04:49:26.140Z,5.25
2023-02-25T04:50:26.123Z,5.22
2023-02-25T04:51:26.070Z,5.16
2023-02-25T04:52:26.036Z,5.12
2023-02-25T04:53:26.045Z,5.14
2023-02-25T04:54:25.989Z,5.20
2023-02-25T04:55:25.968Z,5.14
2023-02-25T04:56:26.100Z,5.17
2023-02-25T04:57:25.922Z,5.07
2023-02-25T04:58:25.888Z,5.12
2023-02-25T04:59:26.108Z,5.27
2023-02-25T05:00:25.935Z,5.16
2023-02-25T05:01:25.912Z,5.14
2023-02-25T05:02:25.781Z,5.25
2023-02-25T05:03:25.756Z,5.13
2023-02-25T05:04:25.788Z,5.25
2023-02-25T05:05:25.740Z,5.14
2023-02-25T05:06:25.934Z,5.12
2023-02-25T05:07:25.660Z,5.16
2023-02-25T05:08:25.634Z,5.16
2023-02-25T05:09:25.681Z,5.25
2023-02-25T05:10:25.600Z,5.27
2023-02-25T05:11:25.600Z,5.12
2023-02-25T05:12:25.528Z,5.16
2023-02-25T05:13:25.507Z,5.20
2023-02-25T05:14:25.480Z,5.16
2023-02-25T05:15:25.488Z,5.10
2023-02-25T05:16:25.841Z,5.27
2023-02-25T05:17:25.841Z,5.25
2023-02-25T05:18:25.609Z,5.12
2023-02-25T05:19:25.764Z,5.13
2023-02-25T05:20:25.412Z,5.12
2023-02-25T05:21:25.339Z,5.05
2023-02-25T05:22:25.344Z,5.14
2023-02-25T05:23:25.350Z,5.14
2023-02-25T05:24:25.323Z,5.09
2023-02-25T05:25:25.202Z,5.27
2023-02-25T05:26:25.505Z,5.22
2023-02-25T05:27:25.151Z,5.14
2023-02-25T05:28:25.163Z,5.12
2023-02-25T05:29:25.119Z,5.13
2023-02-25T05:31:25.469Z,5.19
2023-02-25T05:32:25.652Z,5.27
2023-02-25T05:33:25.154Z,5.25
2023-02-25T05:34:25.062Z,5.22
2023-02-25T05:35:24.960Z,5.12
2023-02-25T05:36:27.975Z,5.10
2023-02-25T05:37:24.888Z,5.22
2023-02-25T05:38:24.849Z,5.14
2023-02-25T05:39:24.828Z,5.19
2023-02-25T05:40:24.944Z,5.07
2023-02-25T05:41:24.931Z,5.10
2023-02-25T05:42:25.171Z,5.12
2023-02-25T05:43:24.784Z,5.16
2023-02-25T05:44:24.700Z,5.23
2023-02-25T05:45:24.685Z,5.31
2023-02-25T05:46:25.045Z,5.34
2023-02-25T05:47:24.663Z,5.32
2023-02-25T05:48:24.746Z,5.34
2023-02-25T05:49:24.773Z,5.30
2023-02-25T05:50:24.689Z,5.31
2023-02-25T05:51:24.528Z,5.20
2023-02-25T05:52:24.493Z,5.20
2023-02-25T05:53:24.874Z,5.20
2023-02-25T05:54:24.712Z,5.25
2023-02-25T05:55:24.592Z,5.32
2023-02-25T05:56:24.675Z,5.20
2023-02-25T05:57:24.629Z,5.30
2023-02-25T05:58:24.555Z,5.14
2023-02-25T05:59:24.305Z,5.14
2023-02-25T06:00:24.306Z,5.10
2023-02-25T06:01:24.261Z,5.07
2023-02-25T06:02:24.323Z,5.17
2023-02-25T06:03:24.249Z,5.07
2023-02-25T06:04:24.219Z,5.14
2023-02-25T06:05:24.186Z,5.12
2023-02-25T06:06:24.600Z,5.17
2023-02-25T06:07:24.245Z,5.10
2023-02-25T06:08:24.085Z,5.05
2023-02-25T06:09:24.131Z,5.13
2023-02-25T06:10:24.098Z,5.09
2023-02-25T06:11:24.114Z,5.05
2023-02-25T06:12:23.978Z,5.10
2023-02-25T06:13:23.953Z,5.07
2023-02-25T06:14:24.245Z,5.09
2023-02-25T06:15:24.058Z,5.02
2023-02-25T06:16:24.449Z,5.12
2023-02-25T06:17:24.106Z,5.13
2023-02-25T06:18:23.859Z,5.09
2023-02-25T06:19:24.106Z,5.12
2023-02-25T06:20:23.769Z,5.17
2023-02-25T06:21:23.747Z,5.09
2023-02-25T06:22:23.714Z,5.09
2023-02-25T06:23:23.685Z,5.07
2023-02-25T06:24:23.669Z,5.09
2023-02-25T06:25:23.641Z,5.09
2023-02-25T06:26:23.874Z,5.09
2023-02-25T06:27:23.599Z,5.14
2023-02-25T06:28:23.644Z,5.16
2023-02-25T06:29:23.572Z,5.12
2023-02-25T06:30:23.512Z,5.20
2023-02-25T06:31:23.567Z,5.25
2023-02-25T06:32:23.657Z,5.22
2023-02-25T06:33:23.426Z,5.19
2023-02-25T06:34:23.417Z,5.20
2023-02-25T06:36:23.808Z,5.20
2023-02-25T06:37:23.436Z,5.12
2023-02-25T06:38:23.405Z,5.23
2023-02-25T06:39:23.426Z,5.28
2023-02-25T06:40:23.318Z,5.31
2023-02-25T06:41:23.322Z,5.28
2023-02-25T06:42:23.254Z,5.25
2023-02-25T06:43:23.291Z,5.28
2023-02-25T06:44:23.198Z,5.31
2023-02-25T06:45:23.265Z,5.27
2023-02-25T06:46:23.561Z,5.30
2023-02-25T06:47:23.245Z,5.27
2023-02-25T06:48:23.288Z,5.22
2023-02-25T06:49:23.133Z,5.27
2023-02-25T06:50:23.179Z,5.37
2023-02-25T06:51:22.975Z,5.30
2023-02-25T06:52:22.940Z,5.31
2023-02-25T06:54:23.109Z,5.27
2023-02-25T06:55:23.013Z,5.30
2023-02-25T06:56:23.386Z,5.30
2023-02-25T06:58:22.950Z,5.25
2023-02-25T06:59:22.766Z,5.28
2023-02-25T07:00:22.748Z,5.31
2023-02-25T07:01:22.786Z,5.32
2023-02-25T07:02:22.707Z,5.23
2023-02-25T07:03:22.658Z,5.38
2023-02-25T07:04:22.987Z,5.28
2023-02-25T07:05:22.629Z,5.19
2023-02-25T07:06:22.987Z,5.28
2023-02-25T07:07:22.563Z,5.35
2023-02-25T07:08:22.530Z,5.43
2023-02-25T07:09:22.509Z,5.32
2023-02-25T07:10:22.504Z,5.37
2023-02-25T07:11:22.450Z,5.35
2023-02-25T07:12:22.447Z,5.34
2023-02-25T07:13:22.404Z,5.32
2023-02-25T07:14:22.369Z,5.40
2023-02-25T07:15:22.345Z,5.32
2023-02-25T07:16:22.715Z,5.38
2023-02-25T07:17:22.296Z,5.46
2023-02-25T07:18:22.270Z,5.40
2023-02-25T07:19:22.240Z,5.46
2023-02-25T07:20:22.242Z,5.46
2023-02-25T07:21:22.193Z,5.49
2023-02-25T07:22:24.146Z,5.43
2023-02-25T07:23:22.138Z,5.45
2023-02-25T07:24:22.169Z,5.43
2023-02-25T07:25:22.179Z,5.41
2023-02-25T07:26:22.525Z,5.48
2023-02-25T07:27:22.037Z,5.48
2023-02-25T07:28:22.012Z,5.46
2023-02-25T07:29:21.981Z,5.48
2023-02-25T07:30:21.966Z,5.49
2023-02-25T07:31:22.681Z,5.45
2023-02-25T07:32:22.106Z,5.48
2023-02-25T07:33:21.924Z,5.38
2023-02-25T07:34:21.868Z,5.49
2023-02-25T07:35:21.831Z,5.50
2023-02-25T07:36:21.857Z,5.52
2023-02-25T07:37:21.785Z,5.52
2023-02-25T07:38:21.793Z,5.53
2023-02-25T07:39:21.744Z,5.46
2023-02-25T07:40:21.712Z,5.49
2023-02-25T07:41:22.000Z,5.52
2023-02-25T07:42:21.660Z,5.46
2023-02-25T07:43:21.622Z,5.50
2023-02-25T07:44:21.616Z,5.59
2023-02-25T07:45:21.585Z,5.55
2023-02-25T07:46:21.586Z,5.55
2023-02-25T07:47:21.520Z,5.48
2023-02-25T07:48:21.528Z,5.53
2023-02-25T07:49:21.480Z,5.52
2023-02-25T07:50:21.457Z,5.53
2023-02-25T07:51:21.731Z,5.66
2023-02-25T07:52:21.401Z,5.63
2023-02-25T07:53:21.382Z,5.57
2023-02-25T07:54:21.356Z,5.60
2023-02-25T07:55:21.329Z,5.46
2023-02-25T07:56:21.301Z,5.59
2023-02-25T07:57:21.277Z,5.53
2023-02-25T07:58:21.270Z,5.48
2023-02-25T07:59:21.234Z,5.56
2023-02-25T08:00:21.220Z,5.46
2023-02-25T08:01:21.615Z,5.59
2023-02-25T08:02:21.213Z,5.53
2023-02-25T08:03:21.116Z,5.59
2023-02-25T08:04:21.161Z,5.53
2023-02-25T08:05:21.093Z,5.57
2023-02-25T08:06:21.041Z,5.64
2023-02-25T08:07:21.012Z,5.64
2023-02-25T08:08:20.991Z,5.59
2023-02-25T08:09:20.962Z,5.66
2023-02-25T08:10:20.949Z,5.66
2023-02-25T08:11:21.131Z,5.67
2023-02-25T08:12:20.889Z,5.66
2023-02-25T08:13:20.863Z,5.63
2023-02-25T08:14:20.842Z,5.66
2023-02-25T08:15:20.810Z,5.67
2023-02-25T08:16:20.837Z,5.67
2023-02-25T08:17:20.780Z,5.74
2023-02-25T08:18:20.753Z,5.64
2023-02-25T08:19:20.716Z,5.64
2023-02-25T08:20:20.693Z,5.64
2023-02-25T08:21:21.032Z,5.63
2023-02-25T08:22:20.703Z,5.63
2023-02-25T08:23:20.626Z,5.64
2023-02-25T08:24:20.622Z,5.64
2023-02-25T08:25:20.600Z,5.64
2023-02-25T08:26:20.550Z,5.68
2023-02-25T08:27:20.516Z,5.67
2023-02-25T08:28:20.495Z,5.68
2023-02-25T08:29:20.464Z,5.68
2023-02-25T08:30:20.443Z,5.71
2023-02-25T08:31:20.563Z,5.74
2023-02-25T08:32:20.518Z,5.63
2023-02-25T08:33:20.365Z,5.60
2023-02-25T08:34:20.337Z,5.53
2023-02-25T08:35:20.325Z,5.50
2023-02-25T08:36:20.282Z,5.59
2023-02-25T08:37:20.263Z,5.59
2023-02-25T08:38:20.257Z,5.57
2023-02-25T08:39:20.194Z,5.52
2023-02-25T08:40:20.182Z,5.55
2023-02-25T08:41:20.155Z,5.56
2023-02-25T08:42:20.130Z,5.55
2023-02-25T08:43:20.092Z,5.64
2023-02-25T08:44:20.082Z,5.53
2023-02-25T08:45:20.045Z,5.50
2023-02-25T08:46:21.291Z,5.57
2023-02-25T08:47:19.997Z,5.52
2023-02-25T08:48:19.990Z,5.60
2023-02-25T08:49:19.940Z,5.48
2023-02-25T08:50:19.948Z,5.60
2023-02-25T08:51:19.933Z,5.57
2023-02-25T08:52:19.869Z,5.59
2023-02-25T08:53:19.841Z,5.48
2023-02-25T08:54:19.814Z,5.55
2023-02-25T08:55:19.784Z,5.56
2023-02-25T08:56:19.763Z,5.52
2023-02-25T08:57:19.758Z,5.53
2023-02-25T08:58:19.742Z,5.56
2023-02-25T08:59:19.693Z,5.64
2023-02-25T09:00:19.685Z,5.66
2023-02-25T09:01:19.711Z,5.53
2023-02-25T09:02:19.620Z,5.59
2023-02-25T09:03:19.586Z,5.60
2023-02-25T09:04:19.619Z,5.56
2023-02-25T09:05:20.742Z,5.66
2023-02-25T09:06:19.529Z,5.64
2023-02-25T09:07:19.488Z,5.67
2023-02-25T09:08:19.470Z,5.73
2023-02-25T09:09:19.454Z,5.74
2023-02-25T09:10:19.407Z,5.81
2023-02-25T09:11:19.394Z,5.89
2023-02-25T09:12:19.366Z,5.95
2023-02-25T09:13:19.324Z,5.86
2023-02-25T09:14:19.328Z,5.88
2023-02-25T09:15:19.276Z,5.98
2023-02-25T09:16:19.338Z,5.93
2023-02-25T09:17:19.231Z,6.06
2023-02-25T09:18:19.257Z,6.16
2023-02-25T09:19:19.175Z,6.21
2023-02-25T09:20:19.157Z,6.13
2023-02-25T09:21:19.119Z,6.35
2023-02-25T09:22:19.109Z,6.30
2023-02-25T09:23:19.118Z,6.30
2023-02-25T09:24:19.064Z,6.28
2023-02-25T09:25:19.041Z,6.38
2023-02-25T09:26:19.010Z,6.46
2023-02-25T09:27:18.972Z,6.46
2023-02-25T09:28:18.961Z,6.44
2023-02-25T09:29:18.945Z,6.59
2023-02-25T09:30:18.909Z,6.62
2023-02-25T09:31:19.010Z,6.53
2023-02-25T09:32:19.000Z,6.48
2023-02-25T09:33:18.901Z,6.33
2023-02-25T09:34:18.812Z,6.38
2023-02-25T09:35:18.786Z,6.33
2023-02-25T09:36:18.765Z,6.26
2023-02-25T09:37:18.726Z,6.16
2023-02-25T09:38:18.703Z,6.19
2023-02-25T09:39:18.669Z,6.32
2023-02-25T09:40:18.665Z,6.43
2023-02-25T09:41:18.633Z,6.44
2023-02-25T09:42:18.605Z,6.43
2023-02-25T09:43:18.577Z,6.62
2023-02-25T09:44:18.564Z,6.59
2023-02-25T09:45:18.526Z,6.53
2023-02-25T09:46:18.565Z,6.53
2023-02-25T09:47:18.520Z,6.50
2023-02-25T09:48:18.472Z,6.61
2023-02-25T09:49:18.422Z,6.62
2023-02-25T09:50:18.410Z,6.62
2023-02-25T09:51:18.380Z,6.56
2023-02-25T09:52:18.355Z,6.44
2023-02-25T09:53:18.326Z,6.40
2023-02-25T09:54:18.310Z,6.40
2023-02-25T09:55:18.287Z,6.38
2023-02-25T09:56:18.256Z,6.43
2023-02-25T09:57:18.264Z,6.41
2023-02-25T09:58:18.209Z,6.38
2023-02-25T09:59:18.179Z,6.33
2023-02-25T10:00:18.161Z,6.38
2023-02-25T10:01:18.190Z,6.26
2023-02-25T10:02:18.207Z,6.29
2023-02-25T10:03:18.239Z,6.30
2023-02-25T10:04:18.103Z,6.29
2023-02-25T10:05:18.034Z,6.33
2023-02-25T10:06:18.016Z,6.36
2023-02-25T10:07:17.984Z,6.36
2023-02-25T10:08:17.959Z,6.41
2023-02-25T10:09:17.935Z,6.32
2023-02-25T10:10:17.929Z,6.38
2023-02-25T10:11:17.882Z,6.38
2023-02-25T10:12:20.209Z,6.38
2023-02-25T10:13:17.836Z,6.41
2023-02-25T10:14:17.820Z,6.47
2023-02-25T10:15:17.789Z,6.53
2023-02-25T10:16:17.768Z,6.62
2023-02-25T10:17:17.736Z,6.81
2023-02-25T10:18:17.721Z,6.94
2023-02-25T10:19:17.682Z,6.95
2023-02-25T10:20:17.664Z,6.91
2023-02-25T10:21:17.634Z,6.90
2023-02-25T10:22:17.627Z,6.79
2023-02-25T10:23:17.592Z,6.98
2023-02-25T10:24:17.632Z,7.08
2023-02-25T10:25:17.540Z,7.17
2023-02-25T10:26:17.511Z,7.24
2023-02-25T10:27:17.485Z,7.27
2023-02-25T10:28:17.458Z,7.38
2023-02-25T10:29:17.435Z,7.42
2023-02-25T10:30:17.414Z,7.53
2023-02-25T10:31:17.489Z,7.58
2023-02-25T10:32:17.611Z,7.63
2023-02-25T10:33:17.356Z,7.72
2023-02-25T10:34:17.311Z,7.74
2023-02-25T10:35:17.285Z,7.66
2023-02-25T10:37:17.294Z,7.85
2023-02-25T10:38:17.214Z,7.87
2023-02-25T10:39:17.194Z,7.72
2023-02-25T10:40:17.185Z,7.99
2023-02-25T10:41:17.174Z,8.25
2023-02-25T10:42:17.124Z,8.83
2023-02-25T10:43:17.108Z,9.09
2023-02-25T10:44:17.072Z,8.78
2023-02-25T10:45:17.045Z,8.62
2023-02-25T10:46:17.047Z,8.48
2023-02-25T10:47:17.029Z,8.44
2023-02-25T10:48:16.974Z,8.57
2023-02-25T10:49:16.980Z,8.99
2023-02-25T10:50:16.922Z,9.63
2023-02-25T10:51:16.895Z,9.83
2023-02-25T10:52:16.873Z,10.24
2023-02-25T10:53:16.854Z,10.56
2023-02-25T10:54:16.840Z,11.19
2023-02-25T10:55:16.809Z,10.92
2023-02-25T10:56:16.781Z,10.03
2023-02-25T10:57:16.763Z,10.06
2023-02-25T10:58:16.752Z,10.12
2023-02-25T10:59:16.722Z,10.59
2023-02-25T11:00:16.697Z,10.18
2023-02-25T11:01:16.713Z,9.46
2023-02-25T11:02:16.712Z,8.91
2023-02-25T11:03:16.637Z,8.58
2023-02-25T11:04:16.661Z,8.42
2023-02-25T11:05:16.589Z,8.30
2023-02-25T11:06:16.561Z,8.12
2023-02-25T11:07:16.551Z,8.12
2023-02-25T11:08:16.540Z,8.32
2023-02-25T11:09:16.591Z,8.42
2023-02-25T11:10:16.480Z,8.36
2023-02-25T11:11:16.527Z,8.32
2023-02-25T11:12:16.437Z,8.11
2023-02-25T11:13:16.416Z,8.11
2023-02-25T11:14:16.395Z,8.10
2023-02-25T11:15:16.362Z,8.22
2023-02-25T11:16:16.345Z,8.11
2023-02-25T11:17:16.320Z,8.17
2023-02-25T11:18:16.329Z,8.18
2023-02-25T11:19:16.278Z,8.17
2023-02-25T11:20:16.243Z,8.11
2023-02-25T11:21:16.268Z,8.11
2023-02-25T11:22:16.207Z,8.07
2023-02-25T11:23:16.172Z,8.04
2023-02-25T11:24:16.159Z,7.85
2023-02-25T11:25:16.146Z,7.85
2023-02-25T11:26:16.101Z,7.92
2023-02-25T11:27:16.114Z,7.97
2023-02-25T11:28:16.051Z,7.92
2023-02-25T11:29:16.033Z,7.89
2023-02-25T11:30:16.044Z,7.77
2023-02-25T11:31:16.156Z,7.72
2023-02-25T11:32:16.170Z,7.67
2023-02-25T11:33:15.954Z,7.72
2023-02-25T11:34:15.930Z,7.79
2023-02-25T11:35:15.905Z,7.85
2023-02-25T11:36:15.865Z,7.87
2023-02-25T11:37:15.835Z,7.99
2023-02-25T11:38:15.820Z,8.17
2023-02-25T11:39:15.797Z,8.17
2023-02-25T11:40:15.760Z,8.37
2023-02-25T11:41:15.737Z,8.33
2023-02-25T11:42:15.736Z,8.33
2023-02-25T11:43:15.692Z,8.25
2023-02-25T11:44:15.667Z,8.30
2023-02-25T11:45:15.641Z,8.28
2023-02-25T11:46:15.632Z,8.39
2023-02-25T11:47:15.597Z,8.35
2023-02-25T11:48:15.612Z,8.37
2023-02-25T11:49:15.570Z,8.35
2023-02-25T11:50:15.559Z,8.22
2023-02-25T11:51:15.525Z,8.22
2023-02-25T11:52:15.483Z,8.08
2023-02-25T11:53:15.540Z,7.94
2023-02-25T11:54:15.433Z,7.92
2023-02-25T11:55:15.431Z,7.84
2023-02-25T11:56:15.375Z,7.75
2023-02-25T11:57:15.370Z,7.79
2023-02-25T11:58:15.343Z,7.90
2023-02-25T11:59:15.316Z,7.93
2023-02-25T12:00:15.283Z,8.04
2023-02-25T12:01:15.262Z,8.12
2023-02-25T12:02:15.251Z,8.12
2023-02-25T12:03:15.209Z,8.25
2023-02-25T12:04:15.191Z,8.25
2023-02-25T12:05:15.161Z,8.28
2023-02-25T12:06:15.159Z,8.22
2023-02-25T12:07:15.109Z,8.28
2023-02-25T12:08:15.103Z,8.22
2023-02-25T12:09:15.096Z,8.25
2023-02-25T12:10:15.052Z,8.12
2023-02-25T12:11:15.017Z,8.12
2023-02-25T12:12:14.996Z,7.99
2023-02-25T12:13:14.964Z,8.00
2023-02-25T12:14:14.948Z,7.89
2023-02-25T12:15:14.937Z,7.94
2023-02-25T12:16:14.909Z,7.82
2023-02-25T12:17:14.871Z,7.79
2023-02-25T12:18:14.861Z,7.66
2023-02-25T12:19:14.833Z,7.71
2023-02-25T12:20:14.790Z,7.50
2023-02-25T12:21:14.780Z,7.56
2023-02-25T12:22:14.766Z,7.49
2023-02-25T12:23:14.723Z,7.53
2023-02-25T12:24:14.694Z,7.69
2023-02-25T12:25:14.676Z,7.67
2023-02-25T12:26:14.652Z,7.52
2023-02-25T12:27:14.674Z,7.66
2023-02-25T12:28:14.598Z,7.53
2023-02-25T12:29:14.585Z,7.50
2023-02-25T12:30:14.558Z,7.44
2023-02-25T12:31:14.556Z,7.38
2023-02-25T12:32:14.538Z,7.44
2023-02-25T12:33:14.487Z,7.42
2023-02-25T12:34:14.455Z,7.32
2023-02-25T12:35:14.427Z,7.42
2023-02-25T12:36:14.398Z,7.38
2023-02-25T12:37:14.380Z,7.42
2023-02-25T12:38:14.364Z,7.44
2023-02-25T12:39:14.338Z,7.53
2023-02-25T12:40:14.309Z,7.53
2023-02-25T12:41:14.283Z,7.75
2023-02-25T12:42:14.272Z,7.75
2023-02-25T12:43:14.230Z,7.75
2023-02-25T12:44:14.204Z,7.62
2023-02-25T12:45:14.217Z,7.44
2023-02-25T12:46:14.183Z,7.34
2023-02-25T12:47:14.147Z,7.32
2023-02-25T12:48:14.188Z,7.26
2023-02-25T12:49:14.085Z,7.15
2023-02-25T12:50:14.108Z,7.05
2023-02-25T12:51:14.032Z,6.95
2023-02-25T12:52:16.417Z,6.94
2023-02-25T12:53:13.985Z,7.01
2023-02-25T12:54:13.956Z,6.86
2023-02-25T12:55:13.933Z,6.83
2023-02-25T12:56:13.990Z,6.79
2023-02-25T12:57:13.894Z,6.81
2023-02-25T12:58:15.657Z,6.81
2023-02-25T12:59:13.853Z,6.84
2023-02-25T13:00:13.863Z,6.76
2023-02-25T13:01:13.837Z,6.81
2023-02-25T13:02:13.765Z,6.76
2023-02-25T13:03:13.735Z,6.72
2023-02-25T13:04:13.766Z,6.72
2023-02-25T13:05:13.686Z,6.68
2023-02-25T13:06:13.700Z,6.72
2023-02-25T13:07:13.633Z,6.80
2023-02-25T13:08:13.603Z,6.94
2023-02-25T13:09:13.602Z,6.97
2023-02-25T13:10:13.610Z,7.07
2023-02-25T13:11:13.535Z,7.08
2023-02-25T13:12:13.537Z,7.04
2023-02-25T13:13:13.488Z,7.08
2023-02-25T13:14:13.468Z,7.13
2023-02-25T13:15:13.459Z,7.08
2023-02-25T13:16:13.459Z,7.12
2023-02-25T13:17:13.399Z,7.07
2023-02-25T13:18:13.369Z,7.09
2023-02-25T13:19:13.334Z,7.07
2023-02-25T13:20:13.332Z,6.86
2023-02-25T13:21:13.312Z,6.81
2023-02-25T13:22:13.290Z,6.79
2023-02-25T13:23:13.248Z,6.97
2023-02-25T13:24:13.225Z,6.98
2023-02-25T13:25:13.192Z,6.99
2023-02-25T13:26:13.202Z,6.91
2023-02-25T13:27:13.182Z,6.95
2023-02-25T13:28:13.118Z,6.91
2023-02-25T13:29:13.097Z,6.94
2023-02-25T13:30:13.085Z,7.05